Hlavní strana
METAR-TAF:

METAR-TAF

Letiště :

Pori, Finsko

zeměpisná šířka: 61-28N, zeměpisná délka: 021-48E, výška: 13 m

Aktuální stav počasí

Zpráva byla vytvořena před 36 minutami, v 21:20 UTC
Východojihovýchodní vítr 12 kt
Teplota 4°C
Vlhkost vzduchu 93%
Tlak 1007 hPa
Viditelnost 10 km a více
Zataženo ve výšce 600 ft
slabý déšť

METAR: EFPO 122120Z AUTO 12012KT 9999 -RA OVC006 04/03 Q1007

Čas: 23:56 (21:56 UTC)

Předpověď počasí

Zpráva byla vytvořena před 1 hodinou a 22 minutami, v 20:34 UTC
Předpověď platná od 12 v 21 UTC do 12 v 23 UTC
Východojihovýchodní vítr 14 kt
Viditelnost 10 km a více
Oblačno až skoro zataženo ve výšce 700 ft
slabý déšť
Dočasný
od 12 v 21 UTC do 12 v 23 UTC
Viditelnost: 4000 m
Oblačno až skoro zataženo ve výšce 400 ft
mrholení

TAF: EFPO 122034Z 1221/1223 12014KT 9999 -RA BKN007 TEMPO 1221/1223 4000 DZ BKN004

Stav a předpovědi počasí z více než 4 000 letišť (zprávy METAR a TAF).

Červené a žluté tečky na mapě představují dostupné meteorologické stanice.

Když kurzor umístíte na tečku, zobrazí se název stanice.

Pak kliknutím zobrazíte stav a předpověď počasí.

Chcete-li změnit mapu, kliknutím na zelené tlačítko se znaménkem +mapu přiblížíte, kliknutím na zelené tlačítko se znaménkem – mapu oddálíte a kliknutím na zelené šipky přejdete na sousední mapy.


METAR-TAF: